Capewater — PBPQ — position and weather

sailwx.info

Track history (hours):
 
Tides and Currents Weather Stations Pressure Air Temp Water Temp Dewpoint Dewpoint Depression Visibility Wind Speed Wind Dir Waves Ship Positions

Capewater

Last reported at 2014-Nov-01 02:33 UTC. Time now 2014-Nov-01 02:37 UTC.
Position N 52°31' E 002°35'.

Length 100 m; draft 5.2 m.

Type: Tanker. MMSI: 246346000.

Date/timePositionNaut miles runAvg speedWind from/ knotsBaromVisibWave heightAir tempDewpointWater temp
2014-Nov-01 02:33N 52°31' E 002°35'1212.0
2014-Nov-01 01:33N 52°37' E 002°18'1312.5
2014-Nov-01 00:32N 52°45' E 002°02'1212.8
2014-Oct-31 23:34N 52°50' E 001°44'1212.1
2014-Oct-31 22:34N 52°59' E 001°30'1211.6
2014-Oct-31 21:34N 53°09' E 001°20'1611.2
2014-Oct-31 20:07N 53°23' E 001°06'1811.0
2014-Oct-31 18:28N 53°39' E 000°51'1010.8
2014-Oct-31 17:33N 53°47' E 000°42'1010.5
2014-Oct-31 16:34N 53°56' E 000°32'1110.7
2014-Oct-31 15:33N 54°04' E 000°22'1110.6
2014-Oct-31 14:33N 54°14' E 000°15'1110.7
2014-Oct-31 13:34N 54°24' E 000°06'1110.9
2014-Oct-31 12:34N 54°33' W 000°05'1211.6
2014-Oct-31 11:33N 54°42' W 000°17'1211.9
2014-Oct-31 10:33N 54°51' W 000°29'1212.1
2014-Oct-31 09:33N 55°01' W 000°41'1313.3
2014-Oct-31 08:34N 55°12' W 000°55'5513.7
2014-Oct-31 04:33N 55°53' W 001°59'1313.4
2014-Oct-31 03:33N 56°01' W 002°18'1313.3
2014-Oct-31 02:33N 56°06' W 002°40'1413.7
2014-Oct-31 01:33N 56°03' W 003°04'1312.6
2014-Oct-31 00:33N 56°00' W 003°26'9 8.5
2014-Oct-30 23:33N 56°02' W 003°41'0 0.3
2014-Oct-30 22:32N 56°02' W 003°42'0 0.0
2014-Oct-30 21:32N 56°02' W 003°42'0 0.0
2014-Oct-30 20:32N 56°02' W 003°42'0 0.0
2014-Oct-30 19:32N 56°02' W 003°42'0 0.0
2014-Oct-30 18:32N 56°02' W 003°42'0 0.0
2014-Oct-30 17:32N 56°02' W 003°42'0 0.0
2014-Oct-30 16:32N 56°02' W 003°42'0 0.0
2014-Oct-30 15:32N 56°02' W 003°42'0 0.0
2014-Oct-30 14:32N 56°02' W 003°42'0 0.0
2014-Oct-30 13:32N 56°02' W 003°42'0 0.0
2014-Oct-30 12:32N 56°02' W 003°42'0 0.0
2014-Oct-30 11:32N 56°02' W 003°42'0 0.1
2014-Oct-30 10:33N 56°02' W 003°41'0 0.0
2014-Oct-30 09:31N 56°02' W 003°41'0 0.0
2014-Oct-30 08:31N 56°02' W 003°41'0 0.0
2014-Oct-30 07:31N 56°02' W 003°41'0 0.0
2014-Oct-30 06:28N 56°02' W 003°41'0 0.0
2014-Oct-30 05:31N 56°02' W 003°41'0 0.0
2014-Oct-30 04:31N 56°02' W 003°41'0 0.0
2014-Oct-30 03:31N 56°02' W 003°41'0 0.0
2014-Oct-30 02:31N 56°02' W 003°41'0 0.0
2014-Oct-30 01:31N 56°02' W 003°41'0 0.0
2014-Oct-30 00:31N 56°02' W 003°41'0 0.0
2014-Oct-29 23:31N 56°02' W 003°41'0 0.0
2014-Oct-29 22:31N 56°02' W 003°41'0 0.0
2014-Oct-29 21:31N 56°02' W 003°41'0 0.0
2014-Oct-29 20:29N 56°02' W 003°41'1 0.6
2014-Oct-29 19:33N 56°02' W 003°41'1010.3
2014-Oct-29 18:33N 56°00' W 003°23'1212.2
2014-Oct-29 17:33N 56°04' W 003°02'1110.8
2014-Oct-29 16:33N 56°06' W 002°43'1312.7
2014-Oct-29 15:33N 56°03' W 002°21'1212.4
2014-Oct-29 14:33N 55°55' W 002°03'2114.4
2014-Oct-29 13:06N 55°42' W 001°35'3814.9
2014-Oct-29 10:33N 55°10' W 000°56'1414.2
2014-Oct-29 09:33N 54°59' W 000°42'1413.8
2014-Oct-29 08:33N 54°48' W 000°28'1313.3
2014-Oct-29 07:33N 54°37' W 000°15'1312.9
2014-Oct-29 06:33N 54°26' W 000°03'1312.8
2014-Oct-29 05:33N 54°15' E 000°08'1313.0
2014-Oct-29 04:34N 54°04' E 000°20'1413.7
2014-Oct-29 03:34N 53°53' E 000°32'4314.4
2014-Oct-29 00:33N 53°16' E 001°13'1312.7
2014-Oct-28 23:33N 53°06' E 001°24'1211.7
2014-Oct-28 22:33N 52°56' E 001°36'1111.0
2014-Oct-28 21:33N 52°49' E 001°49'1211.6
2014-Oct-28 20:33N 52°43' E 002°06'2613.0
2014-Oct-28 18:32N 52°29' E 002°42'1413.5
2014-Oct-28 17:29N 52°21' E 003°01'1213.2
2014-Oct-28 16:33N 52°14' E 003°18'1313.4
2014-Oct-28 15:33N 52°07' E 003°37'1212.4
2014-Oct-28 14:33N 52°02' E 003°55'1313.0
2014-Oct-28 13:33N 51°56' E 004°14'4 3.3
2014-Oct-28 12:20N 51°53' E 004°18'0 0.0
2014-Oct-28 11:32N 51°53' E 004°18'0 0.0
2014-Oct-28 10:32N 51°53' E 004°18'0 0.0
2014-Oct-28 09:32N 51°53' E 004°18'0 0.0
2014-Oct-28 08:05N 51°53' E 004°18'0 0.0
2014-Oct-28 07:32N 51°53' E 004°18'0 0.0
2014-Oct-28 06:32N 51°53' E 004°18'0 0.0
2014-Oct-28 05:32N 51°53' E 004°18'0 0.0
2014-Oct-28 04:20N 51°53' E 004°18'0 0.0
2014-Oct-28 03:26N 51°53' E 004°18'0 0.0
2014-Oct-28 02:32N 51°53' E 004°18'0 0.0
2014-Oct-28 01:32N 51°53' E 004°18'0 0.0
2014-Oct-28 00:29N 51°53' E 004°18'0 0.0
2014-Oct-27 23:26N 51°53' E 004°18'0 0.0
2014-Oct-27 22:32N 51°53' E 004°18'0 0.0
2014-Oct-27 21:26N 51°53' E 004°18'0 0.0
2014-Oct-27 20:32N 51°53' E 004°18'0 0.0
2014-Oct-27 19:26N 51°53' E 004°18'0 0.0
2014-Oct-27 18:32N 51°53' E 004°18'0 0.0
2014-Oct-27 17:29N 51°53' E 004°18'0 0.0
2014-Oct-27 16:32N 51°53' E 004°18'0 0.0
2014-Oct-27 15:29N 51°53' E 004°18'0 0.0
2014-Oct-27 14:32N 51°53' E 004°18'0 0.0
2014-Oct-27 13:26N 51°53' E 004°18'0 0.0
2014-Oct-27 12:32N 51°53' E 004°18'0 0.0
2014-Oct-27 11:32N 51°53' E 004°18'0 0.0
2014-Oct-27 10:32N 51°53' E 004°18'0 0.0
2014-Oct-27 09:32N 51°53' E 004°18'0 0.0
2014-Oct-27 08:32N 51°53' E 004°18'1 1.2
2014-Oct-27 07:33N 51°54' E 004°17'8 8.2
2014-Oct-27 06:33N 51°58' E 004°05'1 0.7
2014-Oct-27 05:28N 51°57' E 004°05'0 0.0
2014-Oct-27 04:31N 51°57' E 004°05'0 0.0
2014-Oct-27 03:28N 51°57' E 004°05'0 0.0
2014-Oct-27 02:31N 51°57' E 004°05'0 0.0
2014-Oct-27 01:31N 51°57' E 004°05'0 0.0
2014-Oct-27 00:31N 51°57' E 004°05'0 0.0
2014-Oct-26 23:31N 51°57' E 004°05'0 0.0
2014-Oct-26 22:31N 51°57' E 004°05'0 0.0
2014-Oct-26 21:31N 51°57' E 004°05'0 0.0
2014-Oct-26 20:25N 51°57' E 004°05'0 0.0
2014-Oct-26 19:28N 51°57' E 004°05'0 0.0
2014-Oct-26 18:31N 51°57' E 004°05'0 0.0
2014-Oct-26 17:31N 51°57' E 004°05'0 0.0
2014-Oct-26 16:31N 51°57' E 004°05'0 0.0
2014-Oct-26 15:25N 51°57' E 004°05'0 0.0
2014-Oct-26 14:31N 51°57' E 004°05'0 0.0
2014-Oct-26 13:31N 51°57' E 004°05'0 0.0
2014-Oct-26 12:31N 51°57' E 004°05'0 0.0
2014-Oct-26 11:24N 51°57' E 004°05'0 0.0
2014-Oct-26 10:31N 51°57' E 004°05'0 0.0
2014-Oct-26 09:31N 51°57' E 004°05'0 0.1
2014-Oct-26 08:33N 51°57' E 004°05'7 7.1
2014-Oct-26 07:34N 51°54' E 004°16'2 1.5
2014-Oct-26 06:29N 51°53' E 004°18'0 0.0
2014-Oct-26 05:32N 51°53' E 004°18'0 0.0
2014-Oct-26 04:32N 51°53' E 004°18'0 0.0
2014-Oct-26 03:32N 51°53' E 004°18'0 0.0
2014-Oct-26 02:26N 51°53' E 004°18'0 0.0
2014-Oct-26 01:26N 51°53' E 004°18'0 0.0
2014-Oct-26 00:32N 51°53' E 004°18'0 0.0
2014-Oct-25 23:32N 51°53' E 004°18'0 0.0
2014-Oct-25 22:32N 51°53' E 004°18'0 0.0
2014-Oct-25 21:32N 51°53' E 004°18'0 0.0
2014-Oct-25 20:32N 51°53' E 004°18'0 0.0
2014-Oct-25 19:26N 51°53' E 004°18'0 0.0
2014-Oct-25 18:26N 51°53' E 004°18'0 0.0
2014-Oct-25 17:26N 51°53' E 004°18'0 0.0
2014-Oct-25 16:32N 51°53' E 004°18'0 0.0
2014-Oct-25 15:29N 51°53' E 004°18'0 0.0
2014-Oct-25 14:32N 51°53' E 004°18'0 0.0
2014-Oct-25 13:26N 51°53' E 004°18'0 0.0
2014-Oct-25 12:32N 51°53' E 004°18'0 0.0
2014-Oct-25 11:32N 51°53' E 004°18'0 0.0
2014-Oct-25 10:32N 51°53' E 004°18'0 0.0
2014-Oct-25 09:32N 51°53' E 004°18'0 0.0
2014-Oct-25 08:32N 51°53' E 004°18'0 0.0
2014-Oct-25 07:32N 51°53' E 004°18'0 0.0
2014-Oct-25 06:25N 51°53' E 004°18'0 0.0
2014-Oct-25 05:32N 51°53' E 004°18'0 0.0
2014-Oct-25 04:28N 51°53' E 004°18'0 0.0
2014-Oct-25 03:26N 51°53' E 004°18'0 0.0
2014-Oct-25 02:32N 51°53' E 004°18'0 0.0
2014-Oct-25 01:31N 51°53' E 004°18'0 0.0
2014-Oct-25 00:31N 51°53' E 004°18'0 0.0
2014-Oct-24 23:31N 51°53' E 004°18'0 0.0
2014-Oct-24 22:31N 51°53' E 004°18'0 0.0
2014-Oct-24 21:25N 51°53' E 004°18'0 0.0
2014-Oct-24 20:31N 51°53' E 004°18'0 0.0
2014-Oct-24 19:32N 51°53' E 004°18'0 0.0
2014-Oct-24 18:31N 51°53' E 004°18'0 0.0
2014-Oct-24 17:32N 51°53' E 004°18'0 0.0
2014-Oct-24 16:25N 51°53' E 004°18'0 0.0
2014-Oct-24 15:32N 51°53' E 004°18'0 0.0
2014-Oct-24 14:29N 51°53' E 004°18'0 0.0
2014-Oct-24 13:31N 51°53' E 004°18'0 0.0
2014-Oct-24 12:31N 51°53' E 004°18'0 0.0
2014-Oct-24 11:31N 51°53' E 004°18'0 0.0
2014-Oct-24 10:28N 51°53' E 004°18'0 0.0
2014-Oct-24 09:31N 51°53' E 004°18'0 0.0
2014-Oct-24 08:25N 51°53' E 004°18'0 0.0
2014-Oct-24 07:31N 51°53' E 004°18'0 0.0
2014-Oct-24 06:31N 51°53' E 004°18'0 0.0
2014-Oct-24 05:31N 51°53' E 004°18'1 1.0
2014-Oct-24 04:33N 51°52' E 004°16'0 0.1
2014-Oct-24 03:33N 51°52' E 004°16'0 0.0
2014-Oct-24 02:33N 51°52' E 004°16'0 0.0
2014-Oct-24 01:33N 51°52' E 004°16'0 0.0
2014-Oct-24 00:33N 51°52' E 004°16'0 0.0
2014-Oct-23 23:33N 51°52' E 004°16'0 0.0
2014-Oct-23 22:33N 51°52' E 004°16'0 0.0
2014-Oct-23 21:33N 51°52' E 004°16'0 0.0
2014-Oct-23 20:33N 51°52' E 004°16'0 0.0
2014-Oct-23 19:21N 51°52' E 004°16'0 0.0
2014-Oct-23 18:30N 51°52' E 004°16'0 0.0
2014-Oct-23 17:33N 51°52' E 004°16'0 0.0
2014-Oct-23 16:33N 51°52' E 004°16'0 0.0
2014-Oct-23 15:27N 51°52' E 004°16'1 1.6
2014-Oct-23 14:33N 51°53' E 004°18'0 0.4
2014-Oct-23 13:31N 51°53' E 004°18'0 0.0
2014-Oct-23 12:31N 51°53' E 004°18'0 0.0
2014-Oct-23 11:31N 51°53' E 004°18'0 0.0
2014-Oct-23 10:31N 51°53' E 004°18'0 0.0
2014-Oct-23 09:25N 51°53' E 004°18'0 0.0
2014-Oct-23 08:19N 51°53' E 004°18'0 0.0
2014-Oct-23 07:31N 51°53' E 004°18'0 0.0
2014-Oct-23 06:34N 51°53' E 004°18'0 0.0
2014-Oct-23 05:31N 51°53' E 004°18'0 0.0
2014-Oct-23 04:31N 51°53' E 004°18'0 0.0
2014-Oct-23 03:34N 51°53' E 004°18'0 0.0
2014-Oct-23 02:28N 51°53' E 004°18'0 0.0
2014-Oct-23 01:34N 51°53' E 004°18'0 0.0
2014-Oct-23 00:34N 51°53' E 004°18'0 0.4
2014-Oct-22 23:34N 51°53' E 004°18'8 8.1
2014-Oct-22 22:33N 51°58' E 004°08'1212.0
2014-Oct-22 21:33N 52°00' E 003°49'9 8.7
2014-Oct-22 20:33N 52°08' E 003°41'5 2.4
2014-Oct-22 18:23N 52°12' E 003°36'0 0.1
2014-Oct-22 17:23N 52°12' E 003°36'0 0.0
2014-Oct-22 16:29N 52°12' E 003°36'0 0.3
2014-Oct-22 15:29N 52°11' E 003°36'1 0.6
2014-Oct-22 14:33N 52°11' E 003°36'1 0.8
2014-Oct-22 13:31N 52°10' E 003°36'1 0.8
2014-Oct-22 12:33N 52°09' E 003°36'0 0.4
2014-Oct-22 11:33N 52°09' E 003°36'0 0.1
2014-Oct-22 10:29N 52°09' E 003°36'1 1.6
2014-Oct-22 09:32N 52°09' E 003°33'1 0.6
2014-Oct-22 08:30N 52°09' E 003°34'1 1.3
2014-Oct-22 07:33N 52°10' E 003°33'0 0.5
2014-Oct-22 06:32N 52°09' E 003°34'1 0.8
2014-Oct-22 05:28N 52°10' E 003°35'1 0.9
2014-Oct-22 04:27N 52°10' E 003°36'1 0.7
2014-Oct-22 03:32N 52°11' E 003°37'  
Track history (hours):
 
Tides and Currents Weather Stations Pressure Air Temp Water Temp Dewpoint Dewpoint Depression Visibility Wind Speed Wind Dir Waves Ship Positions

Capewater

Last reported at 2014-Nov-01 02:33 UTC. Time now 2014-Nov-01 02:37 UTC.
Position N 52°31' E 002°35'.

Length 100 m; draft 5.2 m.

Type: Tanker. MMSI: 246346000.

Date/timePositionNaut miles runAvg speedWind from/ knotsBaromVisibWave heightAir tempDewpointWater temp
2014-Nov-01 02:33N 52°31' E 002°35'1212.0
2014-Nov-01 01:33N 52°37' E 002°18'1312.5
2014-Nov-01 00:32N 52°45' E 002°02'1212.8
2014-Oct-31 23:34N 52°50' E 001°44'1212.1
2014-Oct-31 22:34N 52°59' E 001°30'1211.6
2014-Oct-31 21:34N 53°09' E 001°20'1611.2
2014-Oct-31 20:07N 53°23' E 001°06'1811.0
2014-Oct-31 18:28N 53°39' E 000°51'1010.8
2014-Oct-31 17:33N 53°47' E 000°42'1010.5
2014-Oct-31 16:34N 53°56' E 000°32'1110.7
2014-Oct-31 15:33N 54°04' E 000°22'1110.6
2014-Oct-31 14:33N 54°14' E 000°15'1110.7
2014-Oct-31 13:34N 54°24' E 000°06'1110.9
2014-Oct-31 12:34N 54°33' W 000°05'1211.6
2014-Oct-31 11:33N 54°42' W 000°17'1211.9
2014-Oct-31 10:33N 54°51' W 000°29'1212.1
2014-Oct-31 09:33N 55°01' W 000°41'1313.3
2014-Oct-31 08:34N 55°12' W 000°55'5513.7
2014-Oct-31 04:33N 55°53' W 001°59'1313.4
2014-Oct-31 03:33N 56°01' W 002°18'1313.3
2014-Oct-31 02:33N 56°06' W 002°40'1413.7
2014-Oct-31 01:33N 56°03' W 003°04'1312.6
2014-Oct-31 00:33N 56°00' W 003°26'9 8.5
2014-Oct-30 23:33N 56°02' W 003°41'0 0.3
2014-Oct-30 22:32N 56°02' W 003°42'0 0.0
2014-Oct-30 21:32N 56°02' W 003°42'0 0.0
2014-Oct-30 20:32N 56°02' W 003°42'0 0.0
2014-Oct-30 19:32N 56°02' W 003°42'0 0.0
2014-Oct-30 18:32N 56°02' W 003°42'0 0.0
2014-Oct-30 17:32N 56°02' W 003°42'0 0.0
2014-Oct-30 16:32N 56°02' W 003°42'0 0.0
2014-Oct-30 15:32N 56°02' W 003°42'0 0.0
2014-Oct-30 14:32N 56°02' W 003°42'0 0.0
2014-Oct-30 13:32N 56°02' W 003°42'0 0.0
2014-Oct-30 12:32N 56°02' W 003°42'0 0.0
2014-Oct-30 11:32N 56°02' W 003°42'0 0.1
2014-Oct-30 10:33N 56°02' W 003°41'0 0.0
2014-Oct-30 09:31N 56°02' W 003°41'0 0.0
2014-Oct-30 08:31N 56°02' W 003°41'0 0.0
2014-Oct-30 07:31N 56°02' W 003°41'0 0.0
2014-Oct-30 06:28N 56°02' W 003°41'0 0.0
2014-Oct-30 05:31N 56°02' W 003°41'0 0.0
2014-Oct-30 04:31N 56°02' W 003°41'0 0.0
2014-Oct-30 03:31N 56°02' W 003°41'0 0.0
2014-Oct-30 02:31N 56°02' W 003°41'0 0.0
2014-Oct-30 01:31N 56°02' W 003°41'0 0.0
2014-Oct-30 00:31N 56°02' W 003°41'0 0.0
2014-Oct-29 23:31N 56°02' W 003°41'0 0.0
2014-Oct-29 22:31N 56°02' W 003°41'0 0.0
2014-Oct-29 21:31N 56°02' W 003°41'0 0.0
2014-Oct-29 20:29N 56°02' W 003°41'1 0.6
2014-Oct-29 19:33N 56°02' W 003°41'1010.3
2014-Oct-29 18:33N 56°00' W 003°23'1212.2
2014-Oct-29 17:33N 56°04' W 003°02'1110.8
2014-Oct-29 16:33N 56°06' W 002°43'1312.7
2014-Oct-29 15:33N 56°03' W 002°21'1212.4
2014-Oct-29 14:33N 55°55' W 002°03'2114.4
2014-Oct-29 13:06N 55°42' W 001°35'3814.9
2014-Oct-29 10:33N 55°10' W 000°56'1414.2
2014-Oct-29 09:33N 54°59' W 000°42'1413.8
2014-Oct-29 08:33N 54°48' W 000°28'1313.3
2014-Oct-29 07:33N 54°37' W 000°15'1312.9
2014-Oct-29 06:33N 54°26' W 000°03'1312.8
2014-Oct-29 05:33N 54°15' E 000°08'1313.0
2014-Oct-29 04:34N 54°04' E 000°20'1413.7
2014-Oct-29 03:34N 53°53' E 000°32'4314.4
2014-Oct-29 00:33N 53°16' E 001°13'1312.7
2014-Oct-28 23:33N 53°06' E 001°24'1211.7
2014-Oct-28 22:33N 52°56' E 001°36'1111.0
2014-Oct-28 21:33N 52°49' E 001°49'1211.6
2014-Oct-28 20:33N 52°43' E 002°06'2613.0
2014-Oct-28 18:32N 52°29' E 002°42'1413.5
2014-Oct-28 17:29N 52°21' E 003°01'1213.2
2014-Oct-28 16:33N 52°14' E 003°18'1313.4
2014-Oct-28 15:33N 52°07' E 003°37'1212.4
2014-Oct-28 14:33N 52°02' E 003°55'1313.0
2014-Oct-28 13:33N 51°56' E 004°14'4 3.3
2014-Oct-28 12:20N 51°53' E 004°18'0 0.0
2014-Oct-28 11:32N 51°53' E 004°18'0 0.0
2014-Oct-28 10:32N 51°53' E 004°18'0 0.0
2014-Oct-28 09:32N 51°53' E 004°18'0 0.0
2014-Oct-28 08:05N 51°53' E 004°18'0 0.0
2014-Oct-28 07:32N 51°53' E 004°18'0 0.0
2014-Oct-28 06:32N 51°53' E 004°18'0 0.0
2014-Oct-28 05:32N 51°53' E 004°18'0 0.0
2014-Oct-28 04:20N 51°53' E 004°18'0 0.0
2014-Oct-28 03:26N 51°53' E 004°18'0 0.0
2014-Oct-28 02:32N 51°53' E 004°18'0 0.0
2014-Oct-28 01:32N 51°53' E 004°18'0 0.0
2014-Oct-28 00:29N 51°53' E 004°18'0 0.0
2014-Oct-27 23:26N 51°53' E 004°18'0 0.0
2014-Oct-27 22:32N 51°53' E 004°18'0 0.0
2014-Oct-27 21:26N 51°53' E 004°18'0 0.0
2014-Oct-27 20:32N 51°53' E 004°18'0 0.0
2014-Oct-27 19:26N 51°53' E 004°18'0 0.0
2014-Oct-27 18:32N 51°53' E 004°18'0 0.0
2014-Oct-27 17:29N 51°53' E 004°18'0 0.0
2014-Oct-27 16:32N 51°53' E 004°18'0 0.0
2014-Oct-27 15:29N 51°53' E 004°18'0 0.0
2014-Oct-27 14:32N 51°53' E 004°18'0 0.0
2014-Oct-27 13:26N 51°53' E 004°18'0 0.0
2014-Oct-27 12:32N 51°53' E 004°18'0 0.0
2014-Oct-27 11:32N 51°53' E 004°18'0 0.0
2014-Oct-27 10:32N 51°53' E 004°18'0 0.0
2014-Oct-27 09:32N 51°53' E 004°18'0 0.0
2014-Oct-27 08:32N 51°53' E 004°18'1 1.2
2014-Oct-27 07:33N 51°54' E 004°17'8 8.2
2014-Oct-27 06:33N 51°58' E 004°05'1 0.7
2014-Oct-27 05:28N 51°57' E 004°05'0 0.0
2014-Oct-27 04:31N 51°57' E 004°05'0 0.0
2014-Oct-27 03:28N 51°57' E 004°05'0 0.0
2014-Oct-27 02:31N 51°57' E 004°05'0 0.0
2014-Oct-27 01:31N 51°57' E 004°05'0 0.0
2014-Oct-27 00:31N 51°57' E 004°05'0 0.0
2014-Oct-26 23:31N 51°57' E 004°05'0 0.0
2014-Oct-26 22:31N 51°57' E 004°05'0 0.0
2014-Oct-26 21:31N 51°57' E 004°05'0 0.0
2014-Oct-26 20:25N 51°57' E 004°05'0 0.0
2014-Oct-26 19:28N 51°57' E 004°05'0 0.0
2014-Oct-26 18:31N 51°57' E 004°05'0 0.0
2014-Oct-26 17:31N 51°57' E 004°05'0 0.0
2014-Oct-26 16:31N 51°57' E 004°05'0 0.0
2014-Oct-26 15:25N 51°57' E 004°05'0 0.0
2014-Oct-26 14:31N 51°57' E 004°05'0 0.0
2014-Oct-26 13:31N 51°57' E 004°05'0 0.0
2014-Oct-26 12:31N 51°57' E 004°05'0 0.0
2014-Oct-26 11:24N 51°57' E 004°05'0 0.0
2014-Oct-26 10:31N 51°57' E 004°05'0 0.0
2014-Oct-26 09:31N 51°57' E 004°05'0 0.1
2014-Oct-26 08:33N 51°57' E 004°05'7 7.1
2014-Oct-26 07:34N 51°54' E 004°16'2 1.5
2014-Oct-26 06:29N 51°53' E 004°18'0 0.0
2014-Oct-26 05:32N 51°53' E 004°18'0 0.0
2014-Oct-26 04:32N 51°53' E 004°18'0 0.0
2014-Oct-26 03:32N 51°53' E 004°18'0 0.0
2014-Oct-26 02:26N 51°53' E 004°18'0 0.0
2014-Oct-26 01:26N 51°53' E 004°18'0 0.0
2014-Oct-26 00:32N 51°53' E 004°18'0 0.0
2014-Oct-25 23:32N 51°53' E 004°18'0 0.0
2014-Oct-25 22:32N 51°53' E 004°18'0 0.0
2014-Oct-25 21:32N 51°53' E 004°18'0 0.0
2014-Oct-25 20:32N 51°53' E 004°18'0 0.0
2014-Oct-25 19:26N 51°53' E 004°18'0 0.0
2014-Oct-25 18:26N 51°53' E 004°18'0 0.0
2014-Oct-25 17:26N 51°53' E 004°18'0 0.0
2014-Oct-25 16:32N 51°53' E 004°18'0 0.0
2014-Oct-25 15:29N 51°53' E 004°18'0 0.0
2014-Oct-25 14:32N 51°53' E 004°18'0 0.0
2014-Oct-25 13:26N 51°53' E 004°18'0 0.0
2014-Oct-25 12:32N 51°53' E 004°18'0 0.0
2014-Oct-25 11:32N 51°53' E 004°18'0 0.0
2014-Oct-25 10:32N 51°53' E 004°18'0 0.0
2014-Oct-25 09:32N 51°53' E 004°18'0 0.0
2014-Oct-25 08:32N 51°53' E 004°18'0 0.0
2014-Oct-25 07:32N 51°53' E 004°18'0 0.0
2014-Oct-25 06:25N 51°53' E 004°18'0 0.0
2014-Oct-25 05:32N 51°53' E 004°18'0 0.0
2014-Oct-25 04:28N 51°53' E 004°18'0 0.0
2014-Oct-25 03:26N 51°53' E 004°18'0 0.0
2014-Oct-25 02:32N 51°53' E 004°18'0 0.0
2014-Oct-25 01:31N 51°53' E 004°18'0 0.0
2014-Oct-25 00:31N 51°53' E 004°18'0 0.0
2014-Oct-24 23:31N 51°53' E 004°18'0 0.0
2014-Oct-24 22:31N 51°53' E 004°18'0 0.0
2014-Oct-24 21:25N 51°53' E 004°18'0 0.0
2014-Oct-24 20:31N 51°53' E 004°18'0 0.0
2014-Oct-24 19:32N 51°53' E 004°18'0 0.0
2014-Oct-24 18:31N 51°53' E 004°18'0 0.0
2014-Oct-24 17:32N 51°53' E 004°18'0 0.0
2014-Oct-24 16:25N 51°53' E 004°18'0 0.0
2014-Oct-24 15:32N 51°53' E 004°18'0 0.0
2014-Oct-24 14:29N 51°53' E 004°18'0 0.0
2014-Oct-24 13:31N 51°53' E 004°18'0 0.0
2014-Oct-24 12:31N 51°53' E 004°18'0 0.0
2014-Oct-24 11:31N 51°53' E 004°18'0 0.0
2014-Oct-24 10:28N 51°53' E 004°18'0 0.0
2014-Oct-24 09:31N 51°53' E 004°18'0 0.0
2014-Oct-24 08:25N 51°53' E 004°18'0 0.0
2014-Oct-24 07:31N 51°53' E 004°18'0 0.0
2014-Oct-24 06:31N 51°53' E 004°18'0 0.0
2014-Oct-24 05:31N 51°53' E 004°18'1 1.0
2014-Oct-24 04:33N 51°52' E 004°16'0 0.1
2014-Oct-24 03:33N 51°52' E 004°16'0 0.0
2014-Oct-24 02:33N 51°52' E 004°16'0 0.0
2014-Oct-24 01:33N 51°52' E 004°16'0 0.0
2014-Oct-24 00:33N 51°52' E 004°16'0 0.0
2014-Oct-23 23:33N 51°52' E 004°16'0 0.0
2014-Oct-23 22:33N 51°52' E 004°16'0 0.0
2014-Oct-23 21:33N 51°52' E 004°16'0 0.0
2014-Oct-23 20:33N 51°52' E 004°16'0 0.0
2014-Oct-23 19:21N 51°52' E 004°16'0 0.0
2014-Oct-23 18:30N 51°52' E 004°16'0 0.0
2014-Oct-23 17:33N 51°52' E 004°16'0 0.0
2014-Oct-23 16:33N 51°52' E 004°16'0 0.0
2014-Oct-23 15:27N 51°52' E 004°16'1 1.6
2014-Oct-23 14:33N 51°53' E 004°18'0 0.4
2014-Oct-23 13:31N 51°53' E 004°18'0 0.0
2014-Oct-23 12:31N 51°53' E 004°18'0 0.0
2014-Oct-23 11:31N 51°53' E 004°18'0 0.0
2014-Oct-23 10:31N 51°53' E 004°18'0 0.0
2014-Oct-23 09:25N 51°53' E 004°18'0 0.0
2014-Oct-23 08:19N 51°53' E 004°18'0 0.0
2014-Oct-23 07:31N 51°53' E 004°18'0 0.0
2014-Oct-23 06:34N 51°53' E 004°18'0 0.0
2014-Oct-23 05:31N 51°53' E 004°18'0 0.0
2014-Oct-23 04:31N 51°53' E 004°18'0 0.0
2014-Oct-23 03:34N 51°53' E 004°18'0 0.0
2014-Oct-23 02:28N 51°53' E 004°18'0 0.0
2014-Oct-23 01:34N 51°53' E 004°18'0 0.0
2014-Oct-23 00:34N 51°53' E 004°18'0 0.4
2014-Oct-22 23:34N 51°53' E 004°18'8 8.1
2014-Oct-22 22:33N 51°58' E 004°08'1212.0
2014-Oct-22 21:33N 52°00' E 003°49'9 8.7
2014-Oct-22 20:33N 52°08' E 003°41'5 2.4
2014-Oct-22 18:23N 52°12' E 003°36'0 0.1
2014-Oct-22 17:23N 52°12' E 003°36'0 0.0
2014-Oct-22 16:29N 52°12' E 003°36'0 0.3
2014-Oct-22 15:29N 52°11' E 003°36'1 0.6
2014-Oct-22 14:33N 52°11' E 003°36'1 0.8
2014-Oct-22 13:31N 52°10' E 003°36'1 0.8
2014-Oct-22 12:33N 52°09' E 003°36'0 0.4
2014-Oct-22 11:33N 52°09' E 003°36'0 0.1
2014-Oct-22 10:29N 52°09' E 003°36'1 1.6
2014-Oct-22 09:32N 52°09' E 003°33'1 0.6
2014-Oct-22 08:30N 52°09' E 003°34'1 1.3
2014-Oct-22 07:33N 52°10' E 003°33'0 0.5
2014-Oct-22 06:32N 52°09' E 003°34'1 0.8
2014-Oct-22 05:28N 52°10' E 003°35'1 0.9
2014-Oct-22 04:27N 52°10' E 003°36'1 0.7
2014-Oct-22 03:32N 52°11' E 003°37'  

Dump ship's entire track history